Time;durP1;ratioP1;P1;durP2;ratioP2;P2;SDS_P1;SDS_P2;PMS_P1;PMS_P2;Temp;Humidity;BMP_temperature;BMP_pressure;BME280_temperature;BME280_humidity;BME280_pressure;Samples;Min_cycle;Max_cycle;Signal;HPM_P1;HPM_P2
2022/01/14 00:01:56;;;;;;;268.15;48.45;;;;;;;0.80;100.00;103660.94;5069509;28;20044;-70
2022/01/14 00:04:22;;;;;;;226.40;46.60;;;;;;;0.84;100.00;103664.72;5073767;28;20053;-70
2022/01/14 00:06:48;;;;;;;219.02;45.25;;;;;;;0.78;100.00;103664.19;5073440;28;20060;-69
2022/01/14 00:09:14;;;;;;;321.40;50.33;;;;;;;0.79;100.00;103672.13;5073435;28;20024;-70
2022/01/14 00:11:47;;;;;;;297.90;50.13;;;;;;;0.80;100.00;103673.03;5073528;28;20032;-70
2022/01/14 00:16:41;;;;;;;275.55;43.50;;;;;;;0.80;100.00;103663.53;5073483;28;20040;-71
2022/01/14 00:19:07;;;;;;;184.70;41.45;;;;;;;0.81;100.00;103656.63;5073656;28;20036;-71
2022/01/14 00:21:34;;;;;;;189.50;42.00;;;;;;;0.78;100.00;103658.97;5073155;28;20108;-70
2022/01/14 00:24:09;;;;;;;156.75;40.33;;;;;;;0.76;100.00;103651.03;5073166;28;20017;-70
2022/01/14 00:32:10;;;;;;;167.68;39.65;;;;;;;0.66;100.00;103648.38;5070051;28;20131;-70
2022/01/14 00:34:35;;;;;;;168.45;40.58;;;;;;;0.66;100.00;103646.66;5073561;28;20070;-69
2022/01/14 00:37:01;;;;;;;177.93;40.50;;;;;;;0.67;100.00;103655.38;5073281;28;20020;-71
2022/01/14 00:39:27;;;;;;;276.35;45.95;;;;;;;0.65;100.00;103643.94;5068879;28;20032;-68
2022/01/14 00:41:52;;;;;;;171.32;40.17;;;;;;;0.63;100.00;103643.78;5073196;28;20440;-70
2022/01/14 00:44:18;;;;;;;160.95;38.20;;;;;;;0.63;100.00;103637.69;5072946;28;20033;-70
2022/01/14 00:46:45;;;;;;;192.80;40.55;;;;;;;0.64;100.00;103635.22;5071651;28;20056;-71
2022/01/14 00:49:12;;;;;;;162.57;38.80;;;;;;;0.60;100.00;103630.50;5073039;28;20032;-67
2022/01/14 00:51:37;;;;;;;175.75;39.55;;;;;;;0.58;100.00;103619.03;5072837;28;20044;-69
2022/01/14 00:54:04;;;;;;;210.27;42.17;;;;;;;0.55;100.00;103621.34;5072817;28;20017;-69
2022/01/14 00:56:34;;;;;;;166.48;39.80;;;;;;;0.56;100.00;103604.97;5073061;28;20027;-70
2022/01/14 00:59:14;;;;;;;247.50;45.55;;;;;;;0.56;100.00;103607.56;5068985;28;20028;-68
2022/01/14 01:01:59;;;;;;;202.98;40.30;;;;;;;0.61;100.00;103593.28;5069747;28;20041;-67
2022/01/14 01:04:32;;;;;;;218.55;41.95;;;;;;;0.59;100.00;103600.03;5072628;28;20086;-67
2022/01/14 01:07:00;;;;;;;170.65;39.83;;;;;;;0.56;100.00;103586.75;5069078;28;20021;-67
2022/01/14 01:09:26;;;;;;;188.52;41.05;;;;;;;0.54;100.00;103592.59;5072755;28;20024;-68
2022/01/14 01:12:09;;;;;;;154.05;40.50;;;;;;;0.47;100.00;103593.75;5072369;28;20428;-67
2022/01/14 01:14:44;;;;;;;164.65;40.28;;;;;;;0.49;100.00;103602.59;5067867;28;20036;-67
2022/01/14 01:17:10;;;;;;;254.93;44.78;;;;;;;0.47;100.00;103596.34;5072681;28;20375;-67
2022/01/14 01:19:35;;;;;;;250.30;43.30;;;;;;;0.47;100.00;103594.66;5072678;28;20056;-66
2022/01/14 01:22:01;;;;;;;278.38;44.75;;;;;;;0.45;100.00;103587.47;5072543;28;20071;-67
2022/01/14 01:24:26;;;;;;;223.73;41.20;;;;;;;0.49;100.00;103581.75;5072352;28;20032;-67
2022/01/14 01:26:52;;;;;;;222.60;40.13;;;;;;;0.48;100.00;103586.06;5072753;28;20016;-67
2022/01/14 01:29:29;;;;;;;270.33;42.65;;;;;;;0.40;100.00;103592.28;5072677;28;20070;-67
2022/01/14 01:31:55;;;;;;;212.73;40.58;;;;;;;0.39;100.00;103587.84;5072473;28;20029;-68
2022/01/14 01:34:24;;;;;;;242.20;39.33;;;;;;;0.39;100.00;103584.31;5072529;28;20467;-69
2022/01/14 01:36:52;;;;;;;221.63;38.58;;;;;;;0.33;100.00;103585.59;5072599;28;20032;-70
2022/01/14 01:39:22;;;;;;;259.85;40.58;;;;;;;0.25;100.00;103586.59;5072389;28;20038;-70
2022/01/14 01:41:56;;;;;;;272.40;40.95;;;;;;;0.27;100.00;103599.75;5072343;28;20074;-68
2022/01/14 01:44:23;;;;;;;161.38;34.80;;;;;;;0.23;100.00;103590.75;5072465;28;20024;-69
2022/01/14 01:46:50;;;;;;;210.05;39.45;;;;;;;0.22;100.00;103581.13;5072347;28;20025;-70
2022/01/14 01:49:18;;;;;;;222.82;39.22;;;;;;;0.20;100.00;103582.66;5072251;28;20032;-67
2022/01/14 01:51:48;;;;;;;177.05;36.92;;;;;;;0.18;100.00;103579.03;5072350;28;20104;-69
2022/01/14 01:54:15;;;;;;;183.77;37.53;;;;;;;0.14;100.00;103576.91;5072433;28;20024;-69
2022/01/14 01:56:40;;;;;;;233.02;40.90;;;;;;;0.13;100.00;103570.81;5072562;28;20070;-69
2022/01/14 01:59:06;;;;;;;276.90;43.67;;;;;;;0.14;100.00;103579.50;5072545;28;20406;-70
2022/01/14 02:01:32;;;;;;;167.13;37.47;;;;;;;0.15;100.00;103576.16;5072125;28;20376;-69
2022/01/14 02:03:58;;;;;;;214.38;40.42;;;;;;;0.13;100.00;103580.28;5068121;28;20036;-70
2022/01/14 02:06:24;;;;;;;315.73;43.88;;;;;;;0.15;100.00;103576.16;5072225;28;20032;-67
2022/01/14 02:08:50;;;;;;;219.05;41.63;;;;;;;0.12;100.00;103579.38;5070726;28;20039;-70
2022/01/14 02:11:16;;;;;;;203.98;38.70;;;;;;;0.08;100.00;103578.97;5072206;28;20028;-69
2022/01/14 02:13:43;;;;;;;184.20;38.13;;;;;;;0.07;100.00;103585.84;5074173;28;20096;-69
2022/01/14 02:24:06;;;;;;;185.98;37.92;;;;;;;-0.02;100.00;103559.00;5074741;28;20403;-70
2022/01/14 02:26:32;;;;;;;176.25;38.30;;;;;;;-0.03;100.00;103570.16;5072246;28;20028;-69
2022/01/14 02:28:58;;;;;;;138.63;36.42;;;;;;;-0.02;100.00;103566.81;5071445;28;20024;-71
2022/01/14 02:31:23;;;;;;;145.80;36.28;;;;;;;0.00;100.00;103557.47;5075435;28;20025;-71
2022/01/14 02:33:49;;;;;;;188.32;38.25;;;;;;;-0.02;100.00;103551.19;5075431;28;20021;-71
2022/01/14 02:36:15;;;;;;;142.77;36.80;;;;;;;0.00;100.00;103547.06;5075570;28;20025;-71
2022/01/14 02:38:41;;;;;;;174.35;39.22;;;;;;;-0.03;100.00;103549.34;5075299;28;20021;-71
2022/01/14 02:41:06;;;;;;;176.27;37.30;;;;;;;-0.01;100.00;103535.72;5075478;28;20047;-71
2022/01/14 02:43:33;;;;;;;161.15;38.28;;;;;;;0.02;100.00;103542.00;5075527;28;20024;-71
2022/01/14 02:45:59;;;;;;;160.73;37.25;;;;;;;0.02;100.00;103544.59;5071382;28;20391;-71
2022/01/14 02:48:27;;;;;;;174.00;39.13;;;;;;;0.06;100.00;103547.63;5075113;28;20029;-71
2022/01/14 02:51:01;;;;;;;167.45;35.58;;;;;;;0.06;100.00;103549.28;5075144;28;20025;-71
2022/01/14 02:53:44;;;;;;;210.57;40.08;;;;;;;-0.02;100.00;103538.19;5075123;28;20032;-71
2022/01/14 02:56:13;;;;;;;165.43;37.35;;;;;;;-0.06;100.00;103537.00;5072829;28;20024;-71
2022/01/14 02:58:41;;;;;;;248.57;40.42;;;;;;;-0.08;100.00;103538.53;5075059;28;20021;-71
2022/01/14 03:01:17;;;;;;;171.43;35.90;;;;;;;-0.05;100.00;103540.53;5074444;28;20119;-71
2022/01/14 03:03:45;;;;;;;151.23;35.28;;;;;;;-0.09;100.00;103543.63;5074936;28;20119;-71
2022/01/14 03:06:12;;;;;;;178.68;35.78;;;;;;;-0.15;100.00;103541.38;5074950;28;20032;-71
2022/01/14 03:08:38;;;;;;;206.45;36.63;;;;;;;-0.17;100.00;103545.53;5075129;28;20074;-67
2022/01/14 03:11:12;;;;;;;195.63;35.88;;;;;;;-0.16;100.00;103544.75;5074926;28;20024;-66
2022/01/14 03:13:39;;;;;;;200.18;38.70;;;;;;;-0.22;100.00;103539.91;5073304;28;20095;-66
2022/01/14 03:16:05;;;;;;;178.25;36.08;;;;;;;-0.21;100.00;103546.00;5074769;28;20099;-67
2022/01/14 03:18:46;;;;;;;204.60;39.00;;;;;;;-0.24;100.00;103546.63;5074620;28;20395;-67
2022/01/14 03:21:14;;;;;;;194.95;36.63;;;;;;;-0.22;100.00;103544.19;5072322;28;20468;-68
2022/01/14 03:23:49;;;;;;;197.77;35.72;;;;;;;-0.20;100.00;103543.56;5074469;28;20027;-66
2022/01/14 03:26:15;;;;;;;222.02;38.45;;;;;;;-0.18;100.00;103546.28;5074032;28;20028;-67
2022/01/14 03:28:42;;;;;;;242.27;36.78;;;;;;;-0.19;100.00;103544.44;5074583;28;20032;-66
2022/01/14 03:31:07;;;;;;;287.80;40.25;;;;;;;-0.20;100.00;103547.84;5074457;28;20130;-66
2022/01/14 03:33:34;;;;;;;173.95;35.83;;;;;;;-0.19;100.00;103547.06;5074342;28;20052;-67
2022/01/14 03:35:59;;;;;;;220.75;37.80;;;;;;;-0.19;100.00;103541.84;5070486;28;20127;-66
2022/01/14 03:38:25;;;;;;;195.85;36.20;;;;;;;-0.19;100.00;103545.38;5074209;28;20052;-66
2022/01/14 03:40:51;;;;;;;206.00;35.85;;;;;;;-0.17;100.00;103532.53;5074152;28;20024;-65
2022/01/14 03:43:16;;;;;;;202.40;38.50;;;;;;;-0.19;100.00;103536.66;5074271;28;20039;-66
2022/01/14 03:45:42;;;;;;;293.02;41.58;;;;;;;-0.15;100.00;103533.56;5074184;28;20021;-66
2022/01/14 03:48:07;;;;;;;196.25;36.28;;;;;;;-0.10;100.00;103533.97;5074236;28;20031;-65
2022/01/14 03:50:34;;;;;;;214.10;37.70;;;;;;;-0.15;100.00;103536.16;5073984;28;20387;-65
2022/01/14 03:53:00;;;;;;;208.68;38.47;;;;;;;-0.15;100.00;103533.56;5070061;28;20029;-67
2022/01/14 03:55:25;;;;;;;258.17;41.60;;;;;;;-0.19;100.00;103540.19;5072676;28;20025;-67
2022/01/14 03:57:51;;;;;;;279.13;41.42;;;;;;;-0.19;100.00;103540.19;5073756;28;20103;-66
2022/01/14 04:00:17;;;;;;;213.50;38.85;;;;;;;-0.19;100.00;103539.25;5073685;28;20032;-66
2022/01/14 04:02:43;;;;;;;231.10;39.85;;;;;;;-0.20;100.00;103548.75;5073722;28;20094;-66
2022/01/14 04:05:09;;;;;;;262.67;41.05;;;;;;;-0.19;100.00;103541.84;5073722;28;20085;-66
2022/01/14 04:07:34;;;;;;;243.20;39.25;;;;;;;-0.17;100.00;103532.53;5073669;28;20028;-67
2022/01/14 04:10:00;;;;;;;243.23;38.67;;;;;;;-0.16;100.00;103538.63;5073709;28;20146;-66
2022/01/14 04:12:46;;;;;;;294.13;39.78;;;;;;;-0.19;100.00;103536.66;5071796;28;20387;-67
2022/01/14 04:17:59;;;;;;;345.35;42.60;;;;;;;-0.22;100.00;103528.56;5073668;28;20124;-66
2022/01/14 04:20:24;;;;;;;223.00;39.05;;;;;;;-0.23;100.00;103521.56;5073240;28;20032;-68
2022/01/14 04:22:50;;;;;;;240.70;38.63;;;;;;;-0.26;100.00;103527.41;5073404;28;20028;-66
2022/01/14 04:25:16;;;;;;;240.00;37.72;;;;;;;-0.28;100.00;103530.63;5073272;28;20028;-67
2022/01/14 04:27:41;;;;;;;343.92;41.13;;;;;;;-0.29;100.00;103528.78;5073195;28;20050;-71
2022/01/14 04:30:07;;;;;;;340.60;42.65;;;;;;;-0.33;100.00;103534.50;5072034;28;20037;-71
2022/01/14 04:32:33;;;;;;;356.58;43.80;;;;;;;-0.35;100.00;103518.72;5071945;28;20032;-71
2022/01/14 04:34:58;;;;;;;279.92;39.67;;;;;;;-0.31;100.00;103527.75;5071757;28;20093;-71
2022/01/14 04:37:23;;;;;;;232.57;40.15;;;;;;;-0.30;100.00;103529.59;5072400;28;20047;-71
2022/01/14 04:39:49;;;;;;;306.38;42.50;;;;;;;-0.34;100.00;103522.28;5072835;28;20035;-71
2022/01/14 04:42:14;;;;;;;304.05;42.75;;;;;;;-0.33;100.00;103513.72;5073204;28;20032;-71
2022/01/14 04:44:40;;;;;;;287.83;43.05;;;;;;;-0.30;100.00;103503.59;5073184;28;20036;-71
2022/01/14 04:47:18;;;;;;;248.10;39.10;;;;;;;-0.33;100.00;103509.41;5072976;28;20024;-71
2022/01/14 04:49:43;;;;;;;252.75;39.05;;;;;;;-0.37;100.00;103508.19;5073216;28;20031;-71
2022/01/14 04:52:08;;;;;;;307.80;41.75;;;;;;;-0.39;100.00;103499.38;5073298;28;20020;-71
2022/01/14 04:54:35;;;;;;;226.88;37.60;;;;;;;-0.35;100.00;103508.34;5072631;28;20383;-71
2022/01/14 04:57:01;;;;;;;224.05;36.78;;;;;;;-0.33;100.00;103496.41;5069105;28;20032;-71
2022/01/14 04:59:26;;;;;;;238.32;39.22;;;;;;;-0.40;100.00;103492.31;5073130;28;20086;-71
2022/01/14 05:01:51;;;;;;;296.27;40.78;;;;;;;-0.43;100.00;103488.56;5072395;28;20491;-71
2022/01/14 05:04:17;;;;;;;346.17;43.40;;;;;;;-0.42;100.00;103485.19;5072997;28;20056;-71
2022/01/14 05:06:46;;;;;;;192.63;37.60;;;;;;;-0.44;100.00;103476.31;5072927;28;20020;-71
2022/01/14 05:09:21;;;;;;;206.98;38.17;;;;;;;-0.42;100.00;103472.19;5072748;28;20034;-67
2022/01/14 05:11:53;;;;;;;302.33;41.28;;;;;;;-0.47;100.00;103479.53;5072606;28;20028;-66
2022/01/14 05:14:19;;;;;;;193.50;36.23;;;;;;;-0.48;100.00;103472.53;5072825;28;20024;-66
2022/01/14 05:16:44;;;;;;;198.40;36.92;;;;;;;-0.48;100.00;103469.00;5072507;28;20282;-66
2022/01/14 05:19:10;;;;;;;321.98;43.17;;;;;;;-0.44;100.00;103468.53;5072707;28;20024;-68
2022/01/14 05:21:35;;;;;;;191.43;36.10;;;;;;;-0.45;100.00;103467.63;5072852;28;20032;-66
2022/01/14 05:24:00;;;;;;;203.73;39.25;;;;;;;-0.48;100.00;103469.94;5072373;28;20063;-67
2022/01/14 05:26:25;;;;;;;257.17;41.45;;;;;;;-0.51;100.00;103464.47;5072672;28;20060;-66
2022/01/14 05:28:51;;;;;;;200.48;38.80;;;;;;;-0.51;100.00;103464.47;5072757;28;20112;-66
2022/01/14 05:31:16;;;;;;;158.10;36.30;;;;;;;-0.53;100.00;103474.69;5072483;28;20513;-66
2022/01/14 05:33:46;;;;;;;156.15;37.00;;;;;;;-0.51;100.00;103477.47;5072480;28;20382;-66
2022/01/14 05:36:11;;;;;;;146.32;34.05;;;;;;;-0.48;100.00;103475.13;5072652;28;20386;-66
2022/01/14 05:38:36;;;;;;;141.70;33.88;;;;;;;-0.49;100.00;103473.31;5072232;28;20040;-66
2022/01/14 05:41:02;;;;;;;183.43;36.55;;;;;;;-0.55;100.00;103470.16;5072343;28;20035;-66
2022/01/14 05:43:27;;;;;;;194.98;36.55;;;;;;;-0.55;100.00;103462.34;5072842;28;20348;-66
2022/01/14 05:45:52;;;;;;;191.10;37.50;;;;;;;-0.59;100.00;103462.84;5072328;28;20036;-66
2022/01/14 05:48:36;;;;;;;124.57;33.35;;;;;;;-0.61;100.00;103453.97;5072423;28;20043;-66
2022/01/14 05:51:02;;;;;;;144.23;33.53;;;;;;;-0.63;100.00;103445.13;5072423;28;20025;-68
2022/01/14 05:53:28;;;;;;;125.50;32.47;;;;;;;-0.69;100.00;103452.38;5076333;28;20027;-66
2022/01/14 05:55:53;;;;;;;163.63;36.15;;;;;;;-0.72;100.00;103453.91;5076153;28;20033;-66
2022/01/14 05:58:18;;;;;;;150.75;34.45;;;;;;;-0.73;100.00;103451.16;5076255;28;20024;-66
2022/01/14 06:00:44;;;;;;;117.80;33.80;;;;;;;-0.72;100.00;103451.31;5076040;28;20098;-66
2022/01/14 06:03:09;;;;;;;117.88;31.38;;;;;;;-0.73;100.00;103458.97;5075916;28;20072;-67
2022/01/14 06:05:34;;;;;;;126.95;32.25;;;;;;;-0.71;100.00;103458.34;5076332;28;20162;-69
2022/01/14 06:08:00;;;;;;;151.10;35.83;;;;;;;-0.74;100.00;103463.25;5076027;28;20056;-70
2022/01/14 06:10:25;;;;;;;119.43;33.22;;;;;;;-0.77;100.00;103460.38;5075748;28;20052;-71
2022/01/14 06:12:50;;;;;;;150.52;35.35;;;;;;;-0.80;100.00;103464.38;5076141;28;20024;-71
2022/01/14 06:15:17;;;;;;;145.48;35.65;;;;;;;-0.86;100.00;103462.09;5074694;28;20063;-71
2022/01/14 06:17:42;;;;;;;155.57;36.50;;;;;;;-0.90;100.00;103470.41;5075767;28;20028;-71
2022/01/14 06:20:08;;;;;;;156.75;37.22;;;;;;;-0.89;100.00;103477.41;5072682;28;20059;-72
2022/01/14 06:22:36;;;;;;;137.10;34.75;;;;;;;-0.88;100.00;103474.06;5078281;28;20408;-72
2022/01/14 06:25:01;;;;;;;159.30;37.20;;;;;;;-0.88;100.00;103480.16;5071014;28;20032;-72
2022/01/14 06:27:27;;;;;;;141.63;36.20;;;;;;;-0.82;100.00;103478.91;5070478;28;20032;-71
2022/01/14 06:29:52;;;;;;;139.85;36.83;;;;;;;-0.82;100.00;103473.72;5069203;28;20021;-71
2022/01/14 06:32:17;;;;;;;141.68;37.30;;;;;;;-0.81;100.00;103476.44;5069968;28;20029;-71
2022/01/14 06:34:43;;;;;;;170.90;37.03;;;;;;;-0.82;100.00;103482.41;5070833;28;20031;-71
2022/01/14 06:37:08;;;;;;;148.63;36.78;;;;;;;-0.83;100.00;103470.22;5070787;28;20466;-70
2022/01/14 06:39:33;;;;;;;176.88;38.08;;;;;;;-0.78;100.00;103468.03;5069779;28;20025;-70
2022/01/14 06:41:59;;;;;;;222.60;40.08;;;;;;;-0.80;100.00;103464.38;5069219;28;20023;-70
2022/01/14 06:44:24;;;;;;;167.30;39.15;;;;;;;-0.79;100.00;103467.09;5066823;28;20025;-71
2022/01/14 06:46:50;;;;;;;188.27;38.50;;;;;;;-0.82;100.00;103459.03;5070567;28;20024;-72
2022/01/14 06:49:15;;;;;;;208.23;39.80;;;;;;;-0.80;100.00;103453.97;5066846;28;20069;-71
2022/01/14 06:51:40;;;;;;;153.45;39.20;;;;;;;-0.76;100.00;103454.44;5065687;28;20521;-70
2022/01/14 06:54:06;;;;;;;194.95;39.30;;;;;;;-0.82;100.00;103452.94;5068608;28;20047;-71
2022/01/14 06:56:31;;;;;;;245.80;44.28;;;;;;;-0.82;100.00;103464.22;5064853;28;20025;-71
2022/01/14 06:58:56;;;;;;;183.15;39.90;;;;;;;-0.80;100.00;103462.69;5074312;28;20441;-71
2022/01/14 07:01:22;;;;;;;194.63;40.55;;;;;;;-0.85;100.00;103461.34;5061594;28;20496;-71
2022/01/14 07:03:47;;;;;;;235.77;43.08;;;;;;;-0.88;100.00;103463.66;5077309;28;20028;-70
2022/01/14 07:06:12;;;;;;;178.25;39.58;;;;;;;-0.88;100.00;103461.97;5073732;28;20107;-72
2022/01/14 07:08:38;;;;;;;234.15;42.25;;;;;;;-0.89;100.00;103465.38;5071146;28;20027;-72
2022/01/14 07:11:04;;;;;;;212.77;41.80;;;;;;;-0.90;100.00;103470.41;5072139;28;20079;-70
2022/01/14 07:13:29;;;;;;;168.70;38.65;;;;;;;-0.82;100.00;103477.22;5074310;28;20407;-72
2022/01/14 07:15:54;;;;;;;219.75;42.95;;;;;;;-0.81;100.00;103466.06;5066430;28;20048;-73
2022/01/14 07:18:19;;;;;;;230.02;42.40;;;;;;;-0.79;100.00;103468.78;5076751;28;20148;-71
2022/01/14 07:20:45;;;;;;;262.17;44.67;;;;;;;-0.85;100.00;103474.34;5069010;28;20036;-71
2022/01/14 07:23:10;;;;;;;180.38;41.53;;;;;;;-0.88;100.00;103487.94;5069333;28;20027;-71
2022/01/14 07:25:38;;;;;;;218.85;41.95;;;;;;;-0.94;100.00;103483.88;5065583;28;20537;-71
2022/01/14 07:28:04;;;;;;;194.35;41.03;;;;;;;-0.92;100.00;103487.53;5076304;28;20081;-70
2022/01/14 07:30:29;;;;;;;198.80;41.58;;;;;;;-0.92;100.00;103482.31;5071680;28;20459;-71
2022/01/14 07:32:54;;;;;;;163.82;42.55;;;;;;;-0.98;100.00;103479.16;5075280;28;20016;-68
2022/01/14 07:35:20;;;;;;;221.85;43.00;;;;;;;-1.01;100.00;103477.19;5072014;28;20037;-72
2022/01/14 07:37:45;;;;;;;226.85;44.55;;;;;;;-0.97;100.00;103486.19;5074260;28;20049;-71
2022/01/14 07:40:11;;;;;;;220.35;43.90;;;;;;;-0.99;100.00;103479.91;5074253;28;20032;-72
2022/01/14 07:42:36;;;;;;;238.23;45.90;;;;;;;-0.99;100.00;103487.72;5069091;28;20089;-71
2022/01/14 07:45:03;;;;;;;291.73;48.80;;;;;;;-0.96;100.00;103481.13;5065426;28;20391;-70
2022/01/14 07:47:29;;;;;;;229.40;44.95;;;;;;;-0.94;100.00;103483.88;5066217;28;20112;-72
2022/01/14 07:49:54;;;;;;;204.48;44.85;;;;;;;-0.97;100.00;103481.00;5066580;28;20499;-66
2022/01/14 07:52:20;;;;;;;289.90;48.95;;;;;;;-0.96;100.00;103475.00;5070658;28;20053;-71
2022/01/14 07:54:45;;;;;;;333.90;50.70;;;;;;;-0.97;100.00;103487.09;5069191;28;20029;-71
2022/01/14 07:57:11;;;;;;;243.45;46.28;;;;;;;-0.91;100.00;103484.16;5069204;28;20028;-70
2022/01/14 07:59:38;;;;;;;294.42;50.53;;;;;;;-0.93;100.00;103475.31;5074071;28;20389;-70
2022/01/14 08:02:04;;;;;;;243.73;45.47;;;;;;;-0.89;100.00;103477.41;5069000;28;20041;-67
2022/01/14 08:04:33;;;;;;;259.55;49.58;;;;;;;-0.86;100.00;103477.69;5072025;28;20052;-71
2022/01/14 08:07:08;;;;;;;213.32;46.17;;;;;;;-0.86;100.00;103482.88;5072144;28;20040;-71
2022/01/14 08:09:36;;;;;;;195.38;45.20;;;;;;;-0.80;100.00;103492.94;5070908;28;20032;-66
2022/01/14 08:12:03;;;;;;;224.07;46.80;;;;;;;-0.79;100.00;103484.38;5075493;28;20086;-71
2022/01/14 08:14:29;;;;;;;279.17;49.40;;;;;;;-0.81;100.00;103486.84;5073755;28;20029;-70
2022/01/14 08:16:54;;;;;;;352.73;52.13;;;;;;;-0.84;100.00;103477.88;5069472;28;20048;-68
2022/01/14 08:19:19;;;;;;;241.63;48.17;;;;;;;-0.83;100.00;103471.88;5070183;28;20032;-71
2022/01/14 08:21:44;;;;;;;312.70;51.15;;;;;;;-0.80;100.00;103466.97;5070686;28;20028;-69
2022/01/14 08:24:10;;;;;;;297.00;51.90;;;;;;;-0.77;100.00;103459.44;5067578;28;20029;-70
2022/01/14 08:26:35;;;;;;;196.07;45.60;;;;;;;-0.78;100.00;103471.53;5060796;28;20048;-69
2022/01/14 08:29:00;;;;;;;280.13;51.30;;;;;;;-0.84;100.00;103476.16;5069424;28;20120;-71
2022/01/14 08:31:26;;;;;;;220.02;49.42;;;;;;;-0.84;100.00;103475.28;5069070;28;20044;-70
2022/01/14 08:33:51;;;;;;;336.50;56.53;;;;;;;-0.85;100.00;103463.94;5073332;28;20028;-72
2022/01/14 08:36:17;;;;;;;296.48;51.92;;;;;;;-0.80;100.00;103467.91;5071629;28;20040;-71
2022/01/14 08:38:42;;;;;;;293.88;56.45;;;;;;;-0.75;100.00;103477.00;5069320;28;20029;-71
2022/01/14 08:41:07;;;;;;;249.60;54.25;;;;;;;-0.75;100.00;103470.91;5069788;28;20082;-71
2022/01/14 08:43:33;;;;;;;229.60;50.33;;;;;;;-0.69;100.00;103487.06;5067162;28;20060;-71
2022/01/14 08:46:01;;;;;;;243.10;51.83;;;;;;;-0.60;100.00;103487.91;5074809;28;20017;-71
2022/01/14 08:48:26;;;;;;;295.10;55.30;;;;;;;-0.61;100.00;103480.91;5077782;28;20032;-71
2022/01/14 08:50:52;;;;;;;229.50;51.15;;;;;;;-0.58;100.00;103496.75;5075903;28;20033;-72
2022/01/14 08:53:18;;;;;;;337.05;58.90;;;;;;;-0.50;100.00;103489.66;5070725;28;20024;-71
2022/01/14 08:55:44;;;;;;;256.98;54.47;;;;;;;-0.46;100.00;103470.09;5068175;28;20360;-71
2022/01/14 08:58:09;;;;;;;200.52;50.45;;;;;;;-0.44;100.00;103472.03;5073538;28;20033;-70
2022/01/14 09:00:35;;;;;;;285.48;55.80;;;;;;;-0.36;100.00;103470.13;5065833;28;20029;-70
2022/01/14 09:03:01;;;;;;;272.77;55.58;;;;;;;-0.25;100.00;103463.28;5072469;28;20424;-71
2022/01/14 09:05:26;;;;;;;245.48;52.83;;;;;;;-0.27;100.00;103473.56;5065327;28;20036;-71
2022/01/14 09:07:52;;;;;;;270.85;55.95;;;;;;;-0.22;100.00;103474.91;5073308;28;20081;-71
2022/01/14 09:10:19;;;;;;;372.88;61.75;;;;;;;-0.19;100.00;103469.97;5063240;28;20139;-71
2022/01/14 09:12:44;;;;;;;249.63;53.88;;;;;;;-0.14;100.00;103480.78;5074447;28;20474;-71
2022/01/14 09:15:10;;;;;;;229.05;52.92;;;;;;;-0.12;100.00;103489.63;5068334;28;20116;-70
2022/01/14 09:17:37;;;;;;;283.67;56.47;;;;;;;-0.13;100.00;103479.09;5064892;28;20032;-71
2022/01/14 09:20:04;;;;;;;324.58;57.80;;;;;;;-0.14;100.00;103466.88;5067228;28;20060;-71
2022/01/14 09:22:31;;;;;;;334.88;57.42;;;;;;;-0.14;100.00;103472.97;5068772;28;20024;-68
2022/01/14 09:24:59;;;;;;;279.65;55.83;;;;;;;-0.15;100.00;103455.53;5072672;28;20048;-67
2022/01/14 09:27:26;;;;;;;288.20;57.28;;;;;;;-0.12;100.00;103476.63;5070739;28;20475;-67
2022/01/14 09:29:54;;;;;;;257.92;56.38;;;;;;;-0.03;100.00;103479.13;5072875;28;20032;-68
2022/01/14 09:32:19;;;;;;;345.75;64.13;;;;;;;0.05;100.00;103479.84;5068404;28;20413;-68
2022/01/14 09:34:45;;;;;;;291.60;61.20;;;;;;;0.08;100.00;103482.72;5074474;28;20020;-67
2022/01/14 09:37:11;;;;;;;342.58;62.90;;;;;;;0.12;100.00;103475.31;5068580;28;20025;-69
2022/01/14 09:39:37;;;;;;;335.40;63.80;;;;;;;0.16;100.00;103476.47;5072933;28;20036;-70
2022/01/14 09:42:04;;;;;;;294.40;59.67;;;;;;;0.28;100.00;103481.88;5069606;28;20386;-68
2022/01/14 09:44:30;;;;;;;307.75;62.83;;;;;;;0.35;100.00;103489.47;5072481;28;20078;-69
2022/01/14 09:46:56;;;;;;;245.23;59.53;;;;;;;0.25;100.00;103492.94;5075876;28;20115;-68
2022/01/14 09:49:22;;;;;;;209.98;57.30;;;;;;;0.30;100.00;103495.94;5068709;28;20039;-70
2022/01/14 09:51:47;;;;;;;212.60;57.33;;;;;;;0.26;100.00;103497.38;5068415;28;20039;-68
2022/01/14 09:54:13;;;;;;;285.17;61.05;;;;;;;0.27;100.00;103498.28;5069283;28;20050;-69
2022/01/14 09:56:41;;;;;;;281.75;62.08;;;;;;;0.30;100.00;103502.03;5067138;28;20047;-67
2022/01/14 09:59:07;;;;;;;168.32;53.75;;;;;;;0.40;100.00;103505.47;5069426;28;20082;-70
2022/01/14 10:01:44;;;;;;;208.60;56.22;;;;;;;0.41;100.00;103509.88;5064521;28;20475;-70
2022/01/14 10:04:18;;;;;;;155.32;51.88;;;;;;;0.49;100.00;103506.28;5065027;28;20027;-70
2022/01/14 10:06:59;;;;;;;279.83;58.85;;;;;;;0.51;100.00;103503.03;5064869;28;20031;-70
2022/01/14 10:09:35;;;;;;;147.18;53.60;;;;;;;0.58;100.00;103517.47;5063414;28;20021;-72
2022/01/14 10:12:11;;;;;;;134.70;50.28;;;;;;;0.68;100.00;103512.34;5068159;28;20029;-71
2022/01/14 10:14:43;;;;;;;217.98;52.33;;;;;;;0.62;100.00;103511.78;5063740;28;20025;-72
2022/01/14 10:17:10;;;;;;;118.53;46.22;;;;;;;0.73;100.00;103515.34;5065160;28;20479;-71
2022/01/14 10:19:39;;;;;;;201.25;52.67;;;;;;;0.64;100.00;103520.66;5063211;28;20016;-72
2022/01/14 10:22:25;;;;;;;154.43;48.28;;;;;;;0.76;100.00;103519.88;5066036;28;20028;-71
2022/01/14 10:24:53;;;;;;;115.90;44.92;;;;;;;0.80;100.00;103517.69;5063454;28;20655;-70
2022/01/14 10:27:29;;;;;;;168.85;47.63;;;;;;;0.83;100.00;103512.75;5065437;28;20132;-70
2022/01/14 10:30:06;;;;;;;162.90;49.53;;;;;;;0.78;100.00;103507.91;5059797;28;20379;-70
2022/01/14 10:32:33;;;;;;;148.65;50.15;;;;;;;0.74;100.00;103511.03;5060743;28;20104;-72
2022/01/14 10:35:07;;;;;;;132.98;50.17;;;;;;;0.77;100.00;103514.81;5064814;28;20457;-71
2022/01/14 10:37:34;;;;;;;121.20;49.42;;;;;;;0.82;100.00;103515.22;5068636;28;20058;-71
2022/01/14 10:40:02;;;;;;;118.68;48.40;;;;;;;0.82;100.00;103500.50;5068086;28;20036;-72
2022/01/14 10:42:30;;;;;;;127.47;49.95;;;;;;;0.90;100.00;103513.28;5077387;28;20033;-72
2022/01/14 10:45:13;;;;;;;122.72;49.90;;;;;;;0.95;100.00;103502.47;5076968;28;20028;-71
2022/01/14 10:47:38;;;;;;;96.03;47.63;;;;;;;0.90;100.00;103498.53;5073177;28;20137;-71
2022/01/14 10:50:04;;;;;;;108.22;50.30;;;;;;;0.96;100.00;103499.09;5077012;28;20095;-72
2022/01/14 10:52:30;;;;;;;100.07;49.63;;;;;;;1.01;100.00;103486.44;5070599;28;20526;-72
2022/01/14 10:54:58;;;;;;;99.57;49.78;;;;;;;1.06;100.00;103494.66;5073810;28;20032;-71
2022/01/14 10:57:29;;;;;;;107.38;50.78;;;;;;;1.04;100.00;103492.81;5074917;28;20017;-71
2022/01/14 11:00:12;;;;;;;92.93;47.70;;;;;;;1.09;100.00;103495.81;5070270;28;20058;-70
2022/01/14 11:02:41;;;;;;;90.53;47.97;;;;;;;1.14;100.00;103496.22;5073843;28;20045;-70
2022/01/14 11:05:15;;;;;;;93.93;48.30;;;;;;;1.17;100.00;103486.97;5067528;28;20063;-70
2022/01/14 11:07:43;;;;;;;88.32;46.33;;;;;;;1.19;100.00;103474.06;5075449;28;20035;-71
2022/01/14 11:10:18;;;;;;;87.20;47.65;;;;;;;1.19;100.00;103475.00;5069785;28;20032;-70
2022/01/14 11:12:43;;;;;;;83.82;46.38;;;;;;;1.27;100.00;103480.84;5076742;28;20039;-70
2022/01/14 11:15:10;;;;;;;85.35;45.67;;;;;;;1.28;100.00;103476.53;5071709;28;20482;-71
2022/01/14 11:17:40;;;;;;;81.18;46.13;;;;;;;1.30;100.00;103478.50;5071836;28;20044;-70